Time;durP1;ratioP1;P1;durP2;ratioP2;P2;SDS_P1;SDS_P2;PMS_P1;PMS_P2;Temp;Humidity;BMP_temperature;BMP_pressure;BME280_temperature;BME280_humidity;BME280_pressure;Samples;Min_cycle;Max_cycle;Signal;HPM_P1;HPM_P2
2023/01/05 00:02:07;;;;;;;31.08;15.20;;;;;;;;;;5018599;28;20096;-66
2023/01/05 00:04:32;;;;;;;31.95;14.57;;;;;;;;;;5043561;28;20476;-66
2023/01/05 00:06:57;;;;;;;35.03;15.00;;;;;;;;;;5034034;28;20038;-65
2023/01/05 00:09:23;;;;;;;32.63;15.93;;;;;;;;;;5030613;28;20029;-66
2023/01/05 00:22:46;;;;;;;32.88;15.65;;;;;;;;;;5022281;28;20095;-65
2023/01/05 00:25:13;;;;;;;39.57;16.73;;;;;;;;;;5018378;28;20037;-65
2023/01/05 00:27:39;;;;;;;40.78;18.05;;;;;;;;;;5028461;28;20298;-64
2023/01/05 00:30:04;;;;;;;41.22;18.50;;;;;;;;;;5012247;28;20029;-64
2023/01/05 00:32:30;;;;;;;40.90;18.27;;;;;;;;;;5027063;28;20048;-65
2023/01/05 00:34:56;;;;;;;41.40;19.43;;;;;;;;;;5015211;28;20084;-65
2023/01/05 00:37:26;;;;;;;47.63;18.70;;;;;;;;;;5017805;28;20283;-65
2023/01/05 00:39:52;;;;;;;41.90;18.40;;;;;;;;;;5030100;28;20061;-65
2023/01/05 00:42:17;;;;;;;38.85;18.48;;;;;;;;;;5029150;28;20637;-65
2023/01/05 00:44:42;;;;;;;40.90;18.17;;;;;;;;;;5026713;28;20035;-65
2023/01/05 00:47:08;;;;;;;37.37;17.27;;;;;;;;;;5021615;28;20041;-65
2023/01/05 00:49:33;;;;;;;39.08;17.85;;;;;;;;;;5024898;28;20117;-65
2023/01/05 00:51:59;;;;;;;42.70;18.17;;;;;;;;;;5019377;28;20506;-63
2023/01/05 00:54:24;;;;;;;41.38;17.98;;;;;;;;;;5025393;28;20351;-65
2023/01/05 00:56:49;;;;;;;40.17;18.00;;;;;;;;;;5036419;28;20033;-65
2023/01/05 00:59:15;;;;;;;36.60;17.73;;;;;;;;;;5013232;28;20040;-65
2023/01/05 01:01:40;;;;;;;39.90;17.90;;;;;;;;;;5043823;28;20543;-64
2023/01/05 01:04:05;;;;;;;40.05;18.67;;;;;;;;;;5027176;28;20522;-64
2023/01/05 01:06:31;;;;;;;42.60;19.15;;;;;;;;;;5038613;28;20447;-66
2023/01/05 01:08:57;;;;;;;40.60;18.50;;;;;;;;;;5032559;28;20497;-65
2023/01/05 01:11:22;;;;;;;43.10;19.58;;;;;;;;;;5024118;28;20041;-66
2023/01/05 01:13:47;;;;;;;44.27;18.23;;;;;;;;;;5023970;28;20033;-66
2023/01/05 01:16:14;;;;;;;43.37;19.00;;;;;;;;;;5032606;28;20044;-66
2023/01/05 01:18:39;;;;;;;42.45;19.02;;;;;;;;;;5029727;28;20284;-65
2023/01/05 01:21:05;;;;;;;40.67;18.17;;;;;;;;;;5027962;28;20106;-66
2023/01/05 01:23:32;;;;;;;43.40;20.17;;;;;;;;;;5033562;28;20168;-66
2023/01/05 01:25:58;;;;;;;45.30;19.45;;;;;;;;;;5027707;28;20493;-65
2023/01/05 01:28:23;;;;;;;44.85;19.80;;;;;;;;;;5021021;28;20068;-65
2023/01/05 01:30:48;;;;;;;41.20;18.27;;;;;;;;;;5022020;28;20032;-65
2023/01/05 01:33:14;;;;;;;47.13;20.17;;;;;;;;;;5007700;28;20373;-65
2023/01/05 01:35:39;;;;;;;43.13;18.80;;;;;;;;;;5024990;28;20356;-65
2023/01/05 01:38:04;;;;;;;45.70;20.13;;;;;;;;;;5026671;28;20030;-65
2023/01/05 01:40:29;;;;;;;44.90;19.57;;;;;;;;;;5035061;28;20083;-64
2023/01/05 01:42:55;;;;;;;40.25;19.75;;;;;;;;;;5027729;28;20029;-65
2023/01/05 01:45:22;;;;;;;44.03;19.03;;;;;;;;;;5015519;28;20033;-65
2023/01/05 01:47:51;;;;;;;46.20;20.33;;;;;;;;;;5026492;28;20026;-66
2023/01/05 01:50:17;;;;;;;43.40;18.95;;;;;;;;;;5038275;28;20025;-66
2023/01/05 01:52:44;;;;;;;46.47;19.05;;;;;;;;;;5027793;28;20060;-65
2023/01/05 01:55:09;;;;;;;39.67;19.10;;;;;;;;;;5022918;28;20026;-65
2023/01/05 01:57:35;;;;;;;38.72;18.15;;;;;;;;;;5019199;28;20450;-65
2023/01/05 02:00:02;;;;;;;42.60;18.75;;;;;;;;;;5026397;28;20026;-64
2023/01/05 02:02:28;;;;;;;37.65;17.95;;;;;;;;;;5019176;28;20415;-66
2023/01/05 02:04:55;;;;;;;36.40;17.38;;;;;;;;;;5024199;28;20021;-65
2023/01/05 02:07:23;;;;;;;39.13;17.95;;;;;;;;;;5049214;28;20029;-64
2023/01/05 02:09:48;;;;;;;37.35;17.88;;;;;;;;;;5023258;28;20021;-66
2023/01/05 02:12:19;;;;;;;40.57;17.83;;;;;;;;;;5022266;28;20551;-65
2023/01/05 02:15:36;;;;;;;41.05;18.48;;;;;;;1.58;nan;101188.06;5020155;28;20077;-65
2023/01/05 02:18:14;;;;;;;42.85;18.15;;;;;;;1.61;nan;101193.81;5001211;28;20030;-64
2023/01/05 02:20:46;;;;;;;40.65;17.73;;;;;;;1.60;nan;101193.94;5030001;28;20117;-65
2023/01/05 02:23:17;;;;;;;44.03;18.85;;;;;;;1.65;nan;101189.97;5028044;28;20041;-66
2023/01/05 02:25:45;;;;;;;42.70;19.40;;;;;;;1.68;nan;101173.28;5019897;28;20106;-65
2023/01/05 02:28:26;;;;;;;38.60;18.52;;;;;;;1.68;nan;101160.28;5023569;28;20041;-66
2023/01/05 02:31:00;;;;;;;42.83;18.50;;;;;;;1.70;nan;101160.97;5027901;28;20120;-65
2023/01/05 02:34:03;;;;;;;44.50;18.98;;;;;;;1.72;nan;101159.00;5020850;28;20029;-65
2023/01/05 02:36:46;;;;;;;44.78;20.15;;;;;;;1.70;nan;101150.56;5033447;28;20026;-65
2023/01/05 02:39:16;;;;;;;42.83;19.58;;;;;;;1.68;nan;101148.13;5022863;28;20033;-65
2023/01/05 02:41:51;;;;;;;46.92;20.17;;;;;;;1.79;nan;101170.44;5023289;28;20028;-65
2023/01/05 02:44:18;;;;;;;50.08;20.35;;;;;;;1.85;nan;101174.25;5026590;28;20025;-66
2023/01/05 02:46:45;;;;;;;51.58;21.23;;;;;;;1.83;nan;101166.59;5021767;28;20116;-66
2023/01/05 02:49:14;;;;;;;50.97;21.80;;;;;;;1.82;nan;101159.78;5025409;28;20029;-67
2023/01/05 02:51:46;;;;;;;47.70;21.02;;;;;;;1.91;nan;101168.44;5027261;28;20733;-66
2023/01/05 02:54:30;;;;;;;50.40;21.15;;;;;;;1.94;nan;101165.56;5023405;28;20029;-65
2023/01/05 02:57:14;;;;;;;52.97;21.73;;;;;;;1.85;nan;101133.50;5018998;28;20070;-66
2023/01/05 02:59:49;;;;;;;52.33;21.65;;;;;;;1.78;nan;101119.47;5020387;28;20479;-66
2023/01/05 03:02:19;;;;;;;53.67;22.65;;;;;;;1.77;nan;101117.03;5001962;28;20057;-66
2023/01/05 03:05:03;;;;;;;52.10;22.30;;;;;;;1.88;nan;101146.19;5027805;28;20510;-65
2023/01/05 03:07:33;;;;;;;50.80;20.77;;;;;;;1.76;nan;101124.00;5011358;28;20040;-66
2023/01/05 03:13:39;;;;;;;51.90;21.42;;;;;;;1.79;nan;101123.69;5026805;28;20018;-66
2023/01/05 03:15:35;;;;;;;55.97;21.83;;;;;;;1.85;nan;101132.69;5025416;28;20100;-66
2023/01/05 03:18:08;;;;;;;53.00;22.00;;;;;;;1.88;nan;101134.97;5008770;28;22243;-64
2023/01/05 03:20:36;;;;;;;48.03;19.73;;;;;;;1.82;nan;101118.22;5011190;28;20056;-65
2023/01/05 03:38:10;;;;;;;59.53;18.92;;;;;;;1.81;nan;101136.53;5024260;28;20092;-65
2023/01/05 03:40:38;;;;;;;66.53;20.17;;;;;;;1.81;nan;101134.75;5010838;28;20128;-65
2023/01/05 03:43:05;;;;;;;61.97;19.63;;;;;;;1.77;nan;101130.00;5017926;28;20040;-65
2023/01/05 03:45:43;;;;;;;76.15;20.63;;;;;;;1.75;nan;101124.97;5023393;28;20048;-64
2023/01/05 03:48:08;;;;;;;58.92;18.13;;;;;;;1.66;nan;101107.69;5019895;28;20022;-64
2023/01/05 03:50:35;;;;;;;69.30;18.40;;;;;;;1.67;nan;101099.75;5026687;28;20025;-64
2023/01/05 03:53:01;;;;;;;89.55;21.25;;;;;;;1.78;nan;101111.69;5022957;28;20032;-64
2023/01/05 03:55:27;;;;;;;76.00;18.60;;;;;;;1.68;nan;101093.59;5016049;28;20065;-64
2023/01/05 03:57:52;;;;;;;80.95;18.45;;;;;;;1.69;nan;101097.81;5031296;28;20056;-64
2023/01/05 04:00:19;;;;;;;79.20;18.58;;;;;;;1.80;nan;101108.94;5031042;28;20046;-65
2023/01/05 04:02:45;;;;;;;104.57;16.50;;;;;;;1.66;nan;101082.53;5007740;28;20037;-66
2023/01/05 04:05:11;;;;;;;86.93;17.85;;;;;;;1.75;nan;101093.81;5020808;28;20101;-65
2023/01/05 04:07:36;;;;;;;88.35;17.25;;;;;;;1.67;nan;101076.38;5006069;28;20021;-66
2023/01/05 04:10:01;;;;;;;86.65;16.85;;;;;;;1.68;nan;101062.44;5024585;28;20026;-66
2023/01/05 04:12:27;;;;;;;100.47;17.50;;;;;;;1.79;nan;101079.56;5027414;28;20025;-63
2023/01/05 04:14:52;;;;;;;91.03;17.80;;;;;;;1.78;nan;101064.16;5024008;28;20332;-64
2023/01/05 04:17:18;;;;;;;85.88;16.00;;;;;;;1.83;nan;101062.72;5026883;28;20037;-66
2023/01/05 04:19:43;;;;;;;83.65;17.15;;;;;;;1.88;nan;101063.06;5025354;28;20048;-66
2023/01/05 04:22:08;;;;;;;88.40;16.98;;;;;;;1.87;nan;101048.47;5019991;28;20046;-64
2023/01/05 04:24:34;;;;;;;77.50;17.35;;;;;;;1.89;nan;101046.53;5031131;28;20026;-66
2023/01/05 04:26:59;;;;;;;93.25;17.65;;;;;;;1.81;nan;101024.88;5024984;28;20054;-65
2023/01/05 04:29:24;;;;;;;99.68;18.20;;;;;;;1.88;nan;101025.91;5020295;28;20084;-66
2023/01/05 04:31:50;;;;;;;81.05;18.00;;;;;;;2.04;nan;101051.19;5027000;28;20053;-66
2023/01/05 04:34:15;;;;;;;89.68;18.42;;;;;;;2.06;nan;101047.47;4989498;28;20124;-66
2023/01/05 04:36:41;;;;;;;66.63;18.38;;;;;;;2.16;nan;101046.53;5020729;28;20364;-66
2023/01/05 04:39:06;;;;;;;77.60;18.55;;;;;;;2.36;nan;101067.91;5017151;28;20475;-64
2023/01/05 04:41:31;;;;;;;73.38;20.40;;;;;;;2.06;nan;101018.03;5029835;28;20036;-66
2023/01/05 04:43:57;;;;;;;97.20;20.63;;;;;;;2.34;nan;101031.69;5026612;28;20033;-66
2023/01/05 04:46:22;;;;;;;78.65;20.52;;;;;;;2.43;nan;101046.34;5027262;28;20026;-66
2023/01/05 04:48:47;;;;;;;98.90;23.65;;;;;;;2.50;nan;101064.75;5023608;28;20471;-64
2023/01/05 04:51:13;;;;;;;94.90;23.95;;;;;;;2.49;nan;101065.69;5032669;28;20025;-65
2023/01/05 04:53:38;;;;;;;84.93;21.98;;;;;;;2.54;nan;101060.88;5025727;28;20030;-65
2023/01/05 04:56:04;;;;;;;103.68;24.58;;;;;;;2.65;nan;101062.38;5021062;28;20029;-66
2023/01/05 04:58:29;;;;;;;91.85;23.33;;;;;;;2.59;nan;101035.22;5028494;28;20042;-66
2023/01/05 05:00:54;;;;;;;94.03;22.80;;;;;;;2.73;nan;101038.97;5027893;28;20060;-66
2023/01/05 05:03:20;;;;;;;99.07;23.13;;;;;;;2.75;nan;101031.84;5023063;28;20025;-64
2023/01/05 05:05:45;;;;;;;95.80;23.50;;;;;;;2.82;nan;101039.81;5028738;28;20518;-66
2023/01/05 05:08:11;;;;;;;116.65;24.48;;;;;;;2.86;nan;101049.75;5018835;28;20129;-65
2023/01/05 05:10:36;;;;;;;116.00;25.52;;;;;;;2.90;nan;101051.09;5027445;28;20509;-64
2023/01/05 05:13:01;;;;;;;116.10;24.63;;;;;;;2.88;nan;101041.81;5030095;28;20027;-66
2023/01/05 05:15:27;;;;;;;130.27;25.77;;;;;;;2.97;nan;101046.06;5030642;28;20057;-66
2023/01/05 05:17:52;;;;;;;111.82;24.88;;;;;;;2.97;nan;101030.47;5022461;28;20369;-64
2023/01/05 05:20:17;;;;;;;122.65;25.55;;;;;;;2.98;nan;101021.66;5022799;28;20021;-66
2023/01/05 05:22:43;;;;;;;112.25;24.88;;;;;;;2.94;nan;100994.34;5023261;28;20033;-66
2023/01/05 05:25:08;;;;;;;121.15;25.17;;;;;;;3.03;nan;100982.97;5026950;28;20025;-66
2023/01/05 05:27:34;;;;;;;119.15;24.80;;;;;;;3.03;nan;100975.16;5019436;28;20037;-66
2023/01/05 05:29:59;;;;;;;107.72;25.23;;;;;;;3.04;nan;100969.00;5024710;28;20025;-66
2023/01/05 05:32:24;;;;;;;122.57;27.40;;;;;;;3.17;nan;100984.94;5021300;28;20041;-66
2023/01/05 05:34:49;;;;;;;127.00;26.50;;;;;;;3.17;nan;100973.72;5015482;28;20038;-66
2023/01/05 05:37:15;;;;;;;121.30;26.10;;;;;;;3.13;nan;100977.59;5028389;28;20029;-65
2023/01/05 05:39:40;;;;;;;118.40;27.88;;;;;;;3.23;nan;100980.06;5031010;28;20025;-65
2023/01/05 05:42:06;;;;;;;133.43;29.30;;;;;;;3.30;nan;100996.66;5024926;28;20030;-65
2023/01/05 05:44:31;;;;;;;142.18;31.42;;;;;;;3.14;nan;100980.06;5028300;28;20033;-64
2023/01/05 05:46:56;;;;;;;149.73;31.80;;;;;;;3.33;nan;101006.75;5026784;28;20021;-66
2023/01/05 05:49:22;;;;;;;160.88;32.85;;;;;;;3.32;nan;100992.91;5023935;28;20036;-64
2023/01/05 05:51:47;;;;;;;158.07;30.40;;;;;;;3.37;nan;100987.22;5018551;28;20091;-66
2023/01/05 05:54:12;;;;;;;139.23;30.33;;;;;;;3.43;nan;100983.97;5033823;28;20021;-65
2023/01/05 05:56:38;;;;;;;122.88;30.52;;;;;;;3.41;nan;100989.34;5018336;28;20018;-64
2023/01/05 05:59:03;;;;;;;128.40;31.48;;;;;;;3.38;nan;100987.06;5015286;28;20030;-64
2023/01/05 06:01:29;;;;;;;113.28;28.30;;;;;;;3.47;nan;101000.91;5037722;28;20033;-65
2023/01/05 06:03:54;;;;;;;113.72;30.05;;;;;;;3.50;nan;101003.16;5023511;28;20031;-66
2023/01/05 06:06:20;;;;;;;116.70;31.05;;;;;;;3.39;nan;100974.84;5023637;28;20033;-64
2023/01/05 06:08:45;;;;;;;113.28;29.45;;;;;;;3.47;nan;100994.84;5028535;28;20390;-65
2023/01/05 06:11:10;;;;;;;103.05;28.42;;;;;;;3.41;nan;100980.72;5019933;28;20025;-64
2023/01/05 06:13:36;;;;;;;119.28;31.13;;;;;;;3.52;nan;100995.19;5026101;28;20058;-64
2023/01/05 06:16:01;;;;;;;114.00;30.70;;;;;;;3.53;nan;101002.03;5024625;28;20376;-65
2023/01/05 06:18:29;;;;;;;112.65;31.75;;;;;;;3.57;nan;101004.16;5015385;28;20033;-66
2023/01/05 06:20:54;;;;;;;111.95;31.38;;;;;;;3.55;nan;101003.50;5019582;28;20505;-65
2023/01/05 06:23:20;;;;;;;122.47;33.40;;;;;;;3.50;nan;100981.53;5003082;28;20045;-66
2023/01/05 06:25:45;;;;;;;123.20;33.30;;;;;;;3.63;nan;101006.06;5021413;28;20545;-65
2023/01/05 06:28:11;;;;;;;117.35;34.20;;;;;;;3.57;nan;100996.34;5024472;28;20116;-64
2023/01/05 06:30:36;;;;;;;124.15;33.50;;;;;;;3.60;nan;100998.59;5008728;28;20059;-64
2023/01/05 06:33:02;;;;;;;118.70;33.40;;;;;;;3.62;nan;100990.63;5025833;28;20029;-65
2023/01/05 06:35:27;;;;;;;126.25;34.28;;;;;;;3.60;nan;100982.97;5022049;28;20026;-64
2023/01/05 06:37:53;;;;;;;119.57;31.63;;;;;;;3.63;nan;100977.44;5022152;28;20494;-65
2023/01/05 06:40:18;;;;;;;105.63;30.23;;;;;;;3.66;nan;100981.50;5024966;28;20095;-62
2023/01/05 06:42:43;;;;;;;114.18;32.58;;;;;;;3.60;nan;100969.97;5025948;28;20589;-62
2023/01/05 06:45:12;;;;;;;102.68;31.55;;;;;;;3.67;nan;100972.72;5023237;28;20171;-63
2023/01/05 06:47:37;;;;;;;88.10;28.80;;;;;;;3.54;nan;100938.53;5023439;28;20029;-64
2023/01/05 06:50:03;;;;;;;112.18;30.65;;;;;;;3.69;nan;100956.91;5025026;28;20028;-64
2023/01/05 06:52:28;;;;;;;83.45;24.55;;;;;;;3.72;nan;100952.19;5018044;28;20030;-62
2023/01/05 06:54:54;;;;;;;90.68;30.17;;;;;;;3.74;nan;100949.44;5022478;28;20079;-61
2023/01/05 06:57:21;;;;;;;93.57;30.90;;;;;;;3.68;nan;100935.25;5034192;28;20057;-63
2023/01/05 06:59:47;;;;;;;85.93;27.38;;;;;;;3.73;nan;100932.97;5026359;28;20695;-64
2023/01/05 07:02:14;;;;;;;87.53;28.85;;;;;;;3.71;nan;100892.44;5026153;28;20083;-64
2023/01/05 07:04:39;;;;;;;87.32;27.60;;;;;;;3.75;nan;100898.94;5014477;28;20107;-64
2023/01/05 07:07:05;;;;;;;98.35;36.22;;;;;;;3.75;nan;100899.75;5023741;28;20065;-66
2023/01/05 07:09:30;;;;;;;80.35;27.83;;;;;;;3.73;nan;100888.69;4999793;28;20021;-63
2023/01/05 07:11:56;;;;;;;94.60;28.33;;;;;;;;;;5028288;28;20052;-64
2023/01/05 07:14:21;;;;;;;82.67;26.77;;;;;;;3.81;nan;100865.25;5020322;28;20494;-65
2023/01/05 07:16:46;;;;;;;76.10;25.65;;;;;;;3.78;nan;100855.16;5024912;28;20271;-66
2023/01/05 07:19:12;;;;;;;77.68;26.90;;;;;;;3.79;nan;100854.16;5018329;28;20034;-62
2023/01/05 07:21:38;;;;;;;77.80;24.55;;;;;;;3.66;nan;100853.88;5028501;28;20021;-63
2023/01/05 07:24:04;;;;;;;75.65;24.23;;;;;;;3.84;nan;100896.16;4998884;28;20834;-61
2023/01/05 07:26:29;;;;;;;85.45;27.40;;;;;;;3.83;nan;100896.31;5027269;28;20108;-63
2023/01/05 07:28:55;;;;;;;80.20;27.02;;;;;;;3.86;nan;100901.22;5002760;28;20022;-62
2023/01/05 07:31:20;;;;;;;78.95;27.73;;;;;;;3.90;nan;100918.09;5023752;28;20033;-63
2023/01/05 07:33:45;;;;;;;81.40;24.15;;;;;;;3.93;nan;100930.00;5021892;28;20041;-63
2023/01/05 07:36:11;;;;;;;71.53;24.15;;;;;;;4.07;nan;100939.72;5013058;28;20033;-63
2023/01/05 07:38:36;;;;;;;91.90;27.33;;;;;;;4.32;nan;100978.72;5025913;28;20501;-77
2023/01/05 07:41:02;;;;;;;95.03;29.30;;;;;;;4.33;nan;100991.56;5042918;28;20025;-72
2023/01/05 07:43:28;;;;;;;90.85;27.23;;;;;;;4.15;nan;100957.13;5026402;28;20025;-69
2023/01/05 07:46:01;;;;;;;89.28;28.83;;;;;;;4.39;nan;100996.13;5023918;28;20036;-69
2023/01/05 07:48:27;;;;;;;86.85;27.92;;;;;;;4.36;nan;100980.81;5023318;28;20030;-67
2023/01/05 07:51:00;;;;;;;87.70;27.77;;;;;;;4.50;nan;101000.13;5026270;28;20021;-67
2023/01/05 07:53:25;;;;;;;86.70;25.95;;;;;;;4.56;nan;100994.25;5014080;28;20072;-67
2023/01/05 07:55:58;;;;;;;73.55;25.95;;;;;;;4.55;nan;100971.78;5007721;28;20041;-67
2023/01/05 07:58:25;;;;;;;71.55;25.63;;;;;;;4.44;nan;100957.31;5046280;28;20047;-67
2023/01/05 08:00:51;;;;;;;62.15;25.35;;;;;;;4.50;nan;100955.00;5022872;28;20111;-68
2023/01/05 08:03:16;;;;;;;65.03;23.95;;;;;;;4.53;nan;100945.06;5026446;28;20053;-68
2023/01/05 08:05:41;;;;;;;59.88;24.10;;;;;;;4.44;nan;100936.44;5028762;28;20109;-69
2023/01/05 08:08:07;;;;;;;58.50;22.88;;;;;;;;;;5025600;28;20033;-69
2023/01/05 08:10:37;;;;;;;54.87;22.77;;;;;;;;;;5025931;28;20025;-65
2023/01/05 08:15:46;;;;;;;64.03;22.90;;;;;;;;;;5023937;28;20521;-67
2023/01/05 08:18:12;;;;;;;56.15;22.13;;;;;;;;;;5020156;28;20022;-66
2023/01/05 08:20:37;;;;;;;59.20;24.17;;;;;;;;;;5019003;28;20436;-68
2023/01/05 08:23:02;;;;;;;61.97;23.70;;;;;;;;;;4987211;28;20051;-68
2023/01/05 08:25:27;;;;;;;60.03;24.40;;;;;;;;;;4977502;28;20411;-69
2023/01/05 08:27:53;;;;;;;63.30;24.00;;;;;;;;;;4984105;28;20052;-68
2023/01/05 08:30:18;;;;;;;63.03;23.70;;;;;;;;;;5000349;28;20276;-67
2023/01/05 08:32:43;;;;;;;57.87;22.67;;;;;;;;;;4983124;28;20116;-72
2023/01/05 08:35:08;;;;;;;62.63;24.67;;;;;;;;;;4980407;28;20089;-73
2023/01/05 08:37:34;;;;;;;62.70;24.85;;;;;;;;;;4988176;28;20030;-72
2023/01/05 08:39:59;;;;;;;60.83;23.77;;;;;;;;;;4980157;28;20270;-74
2023/01/05 08:42:24;;;;;;;61.27;23.90;;;;;;;;;;4981169;28;20268;-73
2023/01/05 08:44:49;;;;;;;56.45;24.02;;;;;;;;;;4987615;28;20065;-73
2023/01/05 08:47:14;;;;;;;59.13;22.57;;;;;;;;;;4984591;28;20061;-72
2023/01/05 08:49:40;;;;;;;57.20;23.00;;;;;;;;;;4984602;28;20046;-66
2023/01/05 08:52:07;;;;;;;55.63;22.77;;;;;;;;;;4983997;28;20026;-68
2023/01/05 08:54:32;;;;;;;61.58;23.20;;;;;;;;;;4989066;28;20034;-69
2023/01/05 08:56:57;;;;;;;57.75;22.58;;;;;;;;;;4990613;28;20408;-69
2023/01/05 08:59:22;;;;;;;56.00;22.50;;;;;;;;;;4978855;28;20039;-69
2023/01/05 09:01:48;;;;;;;64.03;23.60;;;;;;;;;;4980201;28;20030;-68
2023/01/05 09:04:13;;;;;;;59.20;22.33;;;;;;;5.36;nan;100917.34;4980228;28;20393;-69
2023/01/05 09:06:41;;;;;;;55.70;22.80;;;;;;;5.42;nan;100924.47;4981490;28;20283;-69
2023/01/05 09:09:06;;;;;;;59.67;24.13;;;;;;;5.49;nan;100914.94;4983457;28;20027;-68
2023/01/05 09:11:33;;;;;;;55.70;22.55;;;;;;;5.48;nan;100902.06;4979042;28;20034;-69
2023/01/05 09:14:01;;;;;;;51.75;22.48;;;;;;;5.65;nan;100913.16;4981721;28;20034;-69
2023/01/05 09:16:29;;;;;;;55.65;22.00;;;;;;;5.73;nan;100905.22;4980924;28;20468;-69
2023/01/05 09:18:56;;;;;;;50.53;21.10;;;;;;;5.74;nan;100894.59;4979682;28;20034;-69
2023/01/05 09:21:22;;;;;;;52.58;22.52;;;;;;;5.81;nan;100897.28;4985422;28;20034;-70
2023/01/05 09:23:47;;;;;;;53.80;22.05;;;;;;;5.88;nan;100903.41;4975236;28;1139657;-68
2023/01/05 09:26:16;;;;;;;58.67;22.42;;;;;;;5.91;nan;100897.84;5023277;28;20555;-69
2023/01/05 09:28:42;;;;;;;55.22;22.65;;;;;;;5.92;nan;100877.75;5040028;28;20063;-69
2023/01/05 09:31:10;;;;;;;56.22;22.55;;;;;;;6.09;nan;100891.44;5025063;28;20480;-66
2023/01/05 09:33:36;;;;;;;49.47;20.98;;;;;;;6.08;nan;100868.88;5021404;28;20021;-69
2023/01/05 09:36:02;;;;;;;49.42;22.27;;;;;;;6.00;nan;100848.91;5005160;28;20087;-69
2023/01/05 09:38:28;;;;;;;49.20;21.27;;;;;;;6.14;nan;100858.50;5023162;28;20034;-69
2023/01/05 09:40:55;;;;;;;47.72;20.90;;;;;;;;;;5001663;28;20025;-68
2023/01/05 09:43:23;;;;;;;49.45;20.77;;;;;;;;;;5019026;28;20026;-68
2023/01/05 09:45:49;;;;;;;53.33;22.40;;;;;;;;;;5025547;28;20026;-68
2023/01/05 09:48:14;;;;;;;50.88;21.10;;;;;;;;;;5020006;28;20038;-68
2023/01/05 09:50:41;;;;;;;51.50;20.55;;;;;;;;;;5022043;28;20105;-68
2023/01/05 09:53:07;;;;;;;49.80;20.75;;;;;;;;;;5023344;28;20442;-69
2023/01/05 09:55:34;;;;;;;46.90;20.83;;;;;;;;;;5016773;28;20112;-68
2023/01/05 09:58:09;;;;;;;46.00;21.35;;;;;;;;;;5027783;28;20024;-69
2023/01/05 10:00:39;;;;;;;47.35;20.98;;;;;;;;;;5021430;28;20037;-68
2023/01/05 10:03:08;;;;;;;46.85;20.08;;;;;;;;;;5021220;28;20520;-68
2023/01/05 10:05:34;;;;;;;;;;;;;;;;;;5021939;28;20030;-69
2023/01/05 10:08:14;;;;;;;44.67;20.03;;;;;;;;;;5016435;28;20302;-70
2023/01/05 10:13:01;;;;;;;46.90;19.95;;;;;;;;;;5019355;28;20018;-69
2023/01/05 10:13:35;;;;;;;44.45;20.80;;;;;;;;;;5020430;28;20041;-68
2023/01/05 10:16:01;;;;;;;51.85;21.13;;;;;;;;;;5018178;28;20475;-68
2023/01/05 10:18:29;;;;;;;45.73;21.07;;;;;;;7.60;nan;100816.97;5019609;28;20041;-67
2023/01/05 10:21:01;;;;;;;40.13;18.03;;;;;;;7.34;nan;100749.53;5025832;28;20310;-67
2023/01/05 10:23:44;;;;;;;42.72;19.08;;;;;;;7.46;nan;100745.34;5024508;28;20294;-67
2023/01/05 10:26:23;;;;;;;43.63;19.10;;;;;;;7.57;nan;100730.88;5013994;28;20087;-68
2023/01/05 10:29:09;;;;;;;39.95;19.58;;;;;;;7.64;nan;100734.34;5026813;28;20022;-69
2023/01/05 10:31:46;;;;;;;40.92;18.38;;;;;;;7.72;nan;100735.16;5007069;28;20025;-68
2023/01/05 10:34:23;;;;;;;38.30;17.40;;;;;;;7.80;nan;100732.34;5014436;28;20022;-68
2023/01/05 10:37:06;;;;;;;44.47;19.90;;;;;;;7.84;nan;100726.50;5022553;28;20022;-68
2023/01/05 10:39:53;;;;;;;40.00;17.45;;;;;;;7.88;nan;100727.75;5019213;28;20514;-68
2023/01/05 10:42:37;;;;;;;39.45;17.38;;;;;;;7.88;nan;100721.69;5022200;28;20700;-69
2023/01/05 10:45:03;;;;;;;40.40;18.17;;;;;;;7.95;nan;100709.41;5014275;28;20565;-68
2023/01/05 10:47:33;;;;;;;39.60;18.63;;;;;;;7.95;nan;100683.19;5016201;28;20051;-69
2023/01/05 10:50:00;;;;;;;39.63;17.75;;;;;;;8.05;nan;100682.78;5018127;28;20022;-68
2023/01/05 10:52:26;;;;;;;38.50;17.95;;;;;;;8.14;nan;100671.09;5002764;28;20051;-69
2023/01/05 10:55:01;;;;;;;39.38;18.25;;;;;;;8.16;nan;100658.56;5016833;28;20022;-69
2023/01/05 10:57:29;;;;;;;36.28;17.70;;;;;;;8.39;nan;100670.47;5016743;28;20393;-69
2023/01/05 10:59:59;;;;;;;37.47;17.98;;;;;;;8.47;nan;100681.56;5025017;28;20079;-69
2023/01/05 11:02:28;;;;;;;41.35;17.95;;;;;;;8.51;nan;100674.91;5021818;28;20033;-69
2023/01/05 11:05:04;;;;;;;36.55;18.23;;;;;;;8.55;nan;100671.88;5001170;28;20080;-70
2023/01/05 11:07:29;;;;;;;34.58;17.52;;;;;;;8.50;nan;100657.56;5021549;28;20033;-69
2023/01/05 11:09:54;;;;;;;38.88;18.88;;;;;;;8.54;nan;100673.69;5010552;28;20017;-70
2023/01/05 11:12:53;;;;;;;36.03;17.52;;;;;;;8.62;nan;100685.78;5018479;28;20033;-70
2023/01/05 11:15:19;;;;;;;36.30;16.67;;;;;;;8.62;nan;100701.53;5013648;28;20040;-71
2023/01/05 11:17:45;;;;;;;33.90;16.92;;;;;;;8.55;nan;100687.63;5016444;28;20125;-68
2023/01/05 11:20:16;;;;;;;35.90;17.80;;;;;;;8.73;nan;100704.34;5015132;28;20425;-68
2023/01/05 11:22:44;;;;;;;34.53;16.42;;;;;;;8.82;nan;100701.53;5014694;28;20133;-69
2023/01/05 11:25:27;;;;;;;38.35;18.10;;;;;;;8.91;nan;100698.47;5015506;28;20030;-69
2023/01/05 11:28:17;;;;;;;35.97;17.63;;;;;;;8.89;nan;100682.09;5013340;28;20026;-69
2023/01/05 11:30:59;;;;;;;33.47;17.17;;;;;;;9.06;nan;100690.31;5024012;28;20037;-69
2023/01/05 11:33:28;;;;;;;36.90;17.42;;;;;;;9.08;nan;100688.31;5019706;28;20034;-68
2023/01/05 11:35:55;;;;;;;35.03;17.67;;;;;;;9.09;nan;100681.22;5022228;28;20033;-71
2023/01/05 11:38:24;;;;;;;29.83;16.13;;;;;;;9.06;nan;100676.41;5016028;28;20083;-69
2023/01/05 11:40:50;;;;;;;34.33;17.73;;;;;;;9.10;nan;100681.03;5021684;28;20376;-74
2023/01/05 11:43:18;;;;;;;32.08;16.88;;;;;;;8.79;nan;100638.88;5011591;28;20471;-74
2023/01/05 11:46:03;;;;;;;38.13;19.00;;;;;;;8.90;nan;100651.38;5005976;28;20101;-73
2023/01/05 11:48:32;;;;;;;38.13;18.48;;;;;;;9.04;nan;100665.28;5016358;28;20104;-74
2023/01/05 11:50:58;;;;;;;33.97;17.40;;;;;;;8.96;nan;100649.78;5017436;28;20758;-74
2023/01/05 11:53:32;;;;;;;37.75;19.20;;;;;;;9.01;nan;100666.50;5001871;28;20029;-74
2023/01/05 11:56:22;;;;;;;39.20;18.30;;;;;;;9.03;nan;100672.38;5014413;28;20605;-73
2023/01/05 11:58:49;;;;;;;35.95;17.50;;;;;;;8.97;nan;100667.94;5001743;28;20044;-73
2023/01/05 12:01:21;;;;;;;39.38;19.23;;;;;;;9.08;nan;100687.50;5010081;28;20412;-73
2023/01/05 12:03:56;;;;;;;33.72;18.38;;;;;;;9.07;nan;100678.78;5008943;28;20069;-73
2023/01/05 12:06:54;;;;;;;32.78;18.30;;;;;;;9.11;nan;100677.38;5012211;28;20523;-73
2023/01/05 12:09:31;;;;;;;35.25;18.20;;;;;;;9.12;nan;100660.63;5013512;28;20069;-75
2023/01/05 12:12:19;;;;;;;33.25;16.48;;;;;;;9.14;nan;100655.94;5040753;28;20043;-73
2023/01/05 12:14:55;;;;;;;37.25;17.23;;;;;;;9.13;nan;100650.91;5023859;28;20072;-74
2023/01/05 12:17:35;;;;;;;33.70;17.35;;;;;;;9.22;nan;100659.34;5020600;28;20052;-74
2023/01/05 12:20:13;;;;;;;37.95;18.13;;;;;;;9.31;nan;100658.09;5042721;28;20022;-67
2023/01/05 12:22:50;;;;;;;34.78;17.48;;;;;;;9.46;nan;100644.69;5045643;28;20056;-68
2023/01/05 12:25:42;;;;;;;34.38;17.23;;;;;;;9.58;nan;100653.50;5046844;28;20025;-69
2023/01/05 12:28:19;;;;;;;33.08;16.40;;;;;;;9.70;nan;100638.66;5025556;28;20053;-68
2023/01/05 12:31:05;;;;;;;36.53;17.70;;;;;;;9.77;nan;100631.53;5012990;28;20043;-71
2023/01/05 12:33:56;;;;;;;32.25;16.20;;;;;;;9.83;nan;100627.22;5024525;28;20029;-68
2023/01/05 12:36:51;;;;;;;31.13;16.52;;;;;;;9.83;nan;100629.84;5022271;28;20036;-68
2023/01/05 12:39:38;;;;;;;30.65;16.90;;;;;;;9.87;nan;100612.63;5028386;28;20033;-68
2023/01/05 12:42:25;;;;;;;29.92;15.50;;;;;;;9.94;nan;100628.38;5026143;28;20061;-69
2023/01/05 12:45:18;;;;;;;32.97;15.15;;;;;;;10.00;nan;100625.66;4999434;28;20056;-68
2023/01/05 12:47:49;;;;;;;29.85;16.02;;;;;;;10.10;nan;100629.63;5016636;28;20025;-69
2023/01/05 12:50:24;;;;;;;31.38;15.48;;;;;;;10.04;nan;100599.75;5026534;28;20036;-70
2023/01/05 12:52:57;;;;;;;29.63;15.00;;;;;;;9.79;nan;100557.66;5040667;28;20054;-70
2023/01/05 12:55:28;;;;;;;29.73;14.65;;;;;;;10.06;nan;100583.75;5017332;28;20131;-68